Time;durP1;ratioP1;P1;durP2;ratioP2;P2;SDS_P1;SDS_P2;PMS_P1;PMS_P2;Temp;Humidity;BMP_temperature;BMP_pressure;BME280_temperature;BME280_humidity;BME280_pressure;Samples;Min_cycle;Max_cycle;Signal;HPM_P1;HPM_P2
2023/06/13 00:01:14;;;;;;;3.05;2.85;;;;;;;;;;5058808;28;20203;-60
2023/06/13 00:03:47;;;;;;;2.72;2.50;;;;;;;;;;5059275;28;20693;-60
2023/06/13 00:06:15;;;;;;;4.05;3.20;;;;;;;;;;5059189;28;20208;-60
2023/06/13 00:08:42;;;;;;;2.83;2.65;;;;;;;;;;5057600;28;20199;-60
2023/06/13 00:11:09;;;;;;;3.10;2.80;;;;;;;;;;5059033;28;20234;-60
2023/06/13 00:13:39;;;;;;;3.03;2.83;;;;;;;;;;5062930;28;20651;-60
2023/06/13 00:16:06;;;;;;;3.55;2.70;;;;;;;;;;5068417;28;20268;-60
2023/06/13 00:18:33;;;;;;;2.95;2.80;;;;;;;;;;5061403;28;20777;-60
2023/06/13 00:21:03;;;;;;;4.82;2.40;;;;;;;;;;5060783;28;20312;-60
2023/06/13 00:23:30;;;;;;;3.17;2.97;;;;;;;;;;5049984;28;20232;-62
2023/06/13 00:25:57;;;;;;;2.70;2.50;;;;;;;;;;5049825;28;20250;-59
2023/06/13 00:28:24;;;;;;;4.07;2.55;;;;;;;;;;5054996;28;20203;-60
2023/06/13 00:30:52;;;;;;;3.33;3.03;;;;;;;;;;5056862;28;20226;-60
2023/06/13 00:33:19;;;;;;;2.47;2.38;;;;;;;;;;5053592;28;20302;-60
2023/06/13 00:35:46;;;;;;;6.32;3.00;;;;;;;;;;5068507;28;20203;-60
2023/06/13 00:38:14;;;;;;;3.88;2.92;;;;;;;;;;5067070;28;20206;-60
2023/06/13 00:40:41;;;;;;;2.70;2.50;;;;;;;;;;5060972;28;20211;-61
2023/06/13 00:43:08;;;;;;;3.15;2.80;;;;;;;;;;5050347;28;20223;-61
2023/06/13 00:45:36;;;;;;;3.20;3.00;;;;;;;;;;5052047;28;20686;-60
2023/06/13 00:48:04;;;;;;;3.00;2.78;;;;;;;;;;5068463;28;20213;-60
2023/06/13 00:50:32;;;;;;;2.65;2.53;;;;;;;;;;5063086;28;20211;-60
2023/06/13 00:53:00;;;;;;;2.92;2.72;;;;;;;;;;5059109;28;20218;-60
2023/06/13 00:55:35;;;;;;;3.63;2.65;;;;;;;;;;5048554;28;20207;-60
2023/06/13 00:58:06;;;;;;;2.70;2.60;;;;;;;;;;5047301;28;20214;-60
2023/06/13 01:00:33;;;;;;;2.78;2.58;;;;;;;;;;5047234;28;20269;-60
2023/06/13 01:03:06;;;;;;;3.22;2.95;;;;;;;;;;5054898;28;20244;-63
2023/06/13 01:05:33;;;;;;;4.57;3.25;;;;;;;;;;5045916;28;20310;-63
2023/06/13 01:08:01;;;;;;;3.20;3.00;;;;;;;;;;5048419;28;20207;-60
2023/06/13 01:10:28;;;;;;;2.97;2.78;;;;;;;;;;5046862;28;20204;-60
2023/06/13 01:13:00;;;;;;;3.15;2.90;;;;;;;;;;5047440;28;20211;-61
2023/06/13 01:15:29;;;;;;;4.32;2.85;;;;;;;;;;5048073;28;20226;-60
2023/06/13 01:17:58;;;;;;;3.25;2.97;;;;;;;;;;5047873;28;20204;-61
2023/06/13 01:20:29;;;;;;;3.22;2.90;;;;;;;;;;5047998;28;20230;-61
2023/06/13 01:23:03;;;;;;;2.70;2.60;;;;;;;;;;5064089;28;20294;-61
2023/06/13 01:25:37;;;;;;;2.97;2.78;;;;;;;;;;5048047;28;20480;-60
2023/06/13 01:28:07;;;;;;;2.80;2.60;;;;;;;;;;5052257;28;20469;-60
2023/06/13 01:30:35;;;;;;;2.95;2.78;;;;;;;;;;5068050;28;20242;-61
2023/06/13 01:33:03;;;;;;;2.83;2.63;;;;;;;;;;5048533;28;20215;-61
2023/06/13 01:35:30;;;;;;;2.88;2.67;;;;;;;;;;5050028;28;20281;-60
2023/06/13 01:37:57;;;;;;;2.88;2.67;;;;;;;;;;5067979;28;20558;-61
2023/06/13 01:40:24;;;;;;;3.28;3.03;;;;;;;;;;5067725;28;20217;-60
2023/06/13 01:42:51;;;;;;;3.00;2.80;;;;;;;;;;5049502;28;20215;-61
2023/06/13 01:45:20;;;;;;;2.78;2.67;;;;;;;;;;5048952;28;20236;-60
2023/06/13 01:47:48;;;;;;;4.03;2.80;;;;;;;;;;5048678;28;20215;-60
2023/06/13 01:50:22;;;;;;;2.90;2.70;;;;;;;;;;5064997;28;20203;-61
2023/06/13 01:52:53;;;;;;;2.70;2.50;;;;;;;;;;5050215;28;20216;-61
2023/06/13 01:55:23;;;;;;;3.00;2.80;;;;;;;;;;5064003;28;20214;-61
2023/06/13 01:57:53;;;;;;;3.08;2.88;;;;;;;;;;5067625;28;20673;-61
2023/06/13 02:00:22;;;;;;;3.08;2.88;;;;;;;;;;5066057;28;20202;-60
2023/06/13 02:02:49;;;;;;;3.30;3.00;;;;;;;;;;5049489;28;20309;-61
2023/06/13 02:05:17;;;;;;;2.20;2.10;;;;;;;;;;5057405;28;20227;-61
2023/06/13 02:07:44;;;;;;;4.20;2.40;;;;;;;;;;5067507;28;20256;-60
2023/06/13 02:10:11;;;;;;;3.17;2.97;;;;;;;;;;5055095;28;20210;-60
2023/06/13 02:12:39;;;;;;;2.80;2.63;;;;;;;;;;5047323;28;20220;-60
2023/06/13 02:15:08;;;;;;;2.88;2.67;;;;;;;;;;5058085;28;20211;-60
2023/06/13 02:17:36;;;;;;;2.78;2.63;;;;;;;;;;5051505;28;20265;-60
2023/06/13 02:20:04;;;;;;;6.07;2.75;;;;;;;;;;5051029;28;20231;-60
2023/06/13 02:22:31;;;;;;;3.30;2.40;;;;;;;;;;5052423;28;20350;-60
2023/06/13 02:24:59;;;;;;;2.53;2.40;;;;;;;;;;5059509;28;20227;-60
2023/06/13 02:27:26;;;;;;;2.78;2.55;;;;;;;;;;5069423;28;20238;-60
2023/06/13 02:29:54;;;;;;;3.15;2.78;;;;;;;;;;5064853;28;20271;-60
2023/06/13 02:32:22;;;;;;;2.45;2.35;;;;;;;;;;5061081;28;20854;-60
2023/06/13 02:34:51;;;;;;;2.70;2.58;;;;;;;;;;5071096;28;20214;-60
2023/06/13 02:37:20;;;;;;;2.75;2.63;;;;;;;;;;5054239;28;20211;-60
2023/06/13 02:39:47;;;;;;;2.60;2.50;;;;;;;;;;5050647;28;20222;-60
2023/06/13 02:42:14;;;;;;;2.38;2.25;;;;;;;;;;5062296;28;20207;-60
2023/06/13 02:44:41;;;;;;;3.00;2.80;;;;;;;;;;5070856;28;20257;-60
2023/06/13 02:47:08;;;;;;;3.13;2.90;;;;;;;;;;5065328;28;20294;-60
2023/06/13 02:49:35;;;;;;;2.78;2.58;;;;;;;;;;5070829;28;20215;-60
2023/06/13 02:52:04;;;;;;;2.75;2.55;;;;;;;;;;5062108;28;20215;-60
2023/06/13 02:54:31;;;;;;;3.25;3.00;;;;;;;;;;5062103;28;20199;-60
2023/06/13 02:56:58;;;;;;;2.90;2.80;;;;;;;;;;5067850;28;20203;-60
2023/06/13 02:59:26;;;;;;;2.70;2.60;;;;;;;;;;5050828;28;20203;-60
2023/06/13 03:01:53;;;;;;;2.72;2.45;;;;;;;;;;5050442;28;20236;-61
2023/06/13 03:04:21;;;;;;;2.92;2.78;;;;;;;;;;5050483;28;20232;-61
2023/06/13 03:06:49;;;;;;;2.58;2.38;;;;;;;;;;5051676;28;20215;-61
2023/06/13 03:09:18;;;;;;;2.72;2.53;;;;;;;;;;5051941;28;20211;-61
2023/06/13 03:11:45;;;;;;;2.47;2.38;;;;;;;;;;5050488;28;20226;-61
2023/06/13 03:14:12;;;;;;;2.80;2.60;;;;;;;;;;5049574;28;20208;-62
2023/06/13 03:16:40;;;;;;;3.88;2.47;;;;;;;;;;5050214;28;20292;-61
2023/06/13 03:19:07;;;;;;;2.90;2.70;;;;;;;;;;5050078;28;20210;-61
2023/06/13 03:21:34;;;;;;;2.47;2.38;;;;;;;;;;5048890;28;20235;-61
2023/06/13 03:24:01;;;;;;;2.38;2.22;;;;;;;;;;5051434;28;20238;-61
2023/06/13 03:26:38;;;;;;;4.82;2.40;;;;;;;;;;5069401;28;20673;-61
2023/06/13 03:29:05;;;;;;;3.33;2.72;;;;;;;;;;5066804;28;20256;-62
2023/06/13 03:31:32;;;;;;;2.85;2.65;;;;;;;;;;5067599;28;20214;-61
2023/06/13 03:33:59;;;;;;;2.33;2.22;;;;;;;;;;5067916;28;20265;-62
2023/06/13 03:36:26;;;;;;;2.75;2.53;;;;;;;;;;5068198;28;20217;-62
2023/06/13 03:38:53;;;;;;;2.85;2.65;;;;;;;;;;5065462;28;20201;-62
2023/06/13 03:41:20;;;;;;;2.75;2.65;;;;;;;;;;5049623;28;20215;-62
2023/06/13 03:43:49;;;;;;;2.28;2.17;;;;;;;;;;5048614;28;20773;-62
2023/06/13 03:46:16;;;;;;;3.33;3.08;;;;;;;;;;5049915;28;20207;-62
2023/06/13 03:48:43;;;;;;;6.18;2.80;;;;;;;;;;5056770;28;20207;-61
2023/06/13 03:51:10;;;;;;;2.63;2.53;;;;;;;;;;5063620;28;20226;-61
2023/06/13 03:53:38;;;;;;;2.45;2.35;;;;;;;;;;5049918;28;20208;-61
2023/06/13 03:56:06;;;;;;;4.30;2.53;;;;;;;;;;5067240;28;20227;-61
2023/06/13 03:58:34;;;;;;;2.58;2.47;;;;;;;;;;5069242;28;20680;-61
2023/06/13 04:01:02;;;;;;;3.22;2.78;;;;;;;;;;5060437;28;20234;-61
2023/06/13 04:03:29;;;;;;;2.47;2.38;;;;;;;;;;5049108;28;20237;-62
2023/06/13 04:05:56;;;;;;;2.67;2.47;;;;;;;;;;5050246;28;20867;-61
2023/06/13 04:08:23;;;;;;;2.70;2.50;;;;;;;;;;5049524;28;20585;-61
2023/06/13 04:10:50;;;;;;;2.78;2.30;;;;;;;;;;5050304;28;20261;-61
2023/06/13 04:13:17;;;;;;;2.65;2.55;;;;;;;;;;5051641;28;20203;-62
2023/06/13 04:15:45;;;;;;;6.03;2.22;;;;;;;;;;5066705;28;20635;-60
2023/06/13 04:18:17;;;;;;;2.30;2.20;;;;;;;;;;5068686;28;20665;-59
2023/06/13 04:20:45;;;;;;;2.75;2.55;;;;;;;;;;5064642;28;20317;-61
2023/06/13 04:23:13;;;;;;;3.15;2.83;;;;;;;;;;5056282;28;20314;-60
2023/06/13 04:25:40;;;;;;;3.38;2.25;;;;;;;;;;5060624;28;20593;-60
2023/06/13 04:28:08;;;;;;;3.08;2.30;;;;;;;;;;5052979;28;20231;-60
2023/06/13 04:30:36;;;;;;;2.30;2.20;;;;;;;;;;5049588;28;20751;-62
2023/06/13 04:33:06;;;;;;;2.38;2.28;;;;;;;;;;5046718;28;20211;-58
2023/06/13 04:35:37;;;;;;;2.75;2.58;;;;;;;;;;5048166;28;20265;-60
2023/06/13 04:38:05;;;;;;;3.25;2.53;;;;;;;;;;5049112;28;20645;-60
2023/06/13 04:40:33;;;;;;;2.60;2.40;;;;;;;;;;5048703;28;20382;-60
2023/06/13 04:43:03;;;;;;;2.78;2.13;;;;;;;;;;5048307;28;20677;-60
2023/06/13 04:45:30;;;;;;;2.17;2.08;;;;;;;;;;5048543;28;20234;-60
2023/06/13 04:48:01;;;;;;;2.53;2.40;;;;;;;;;;5051962;28;20723;-60
2023/06/13 04:50:28;;;;;;;2.42;2.33;;;;;;;;;;5062823;28;20210;-59
2023/06/13 04:52:57;;;;;;;2.30;2.20;;;;;;;;;;5059185;28;20202;-60
2023/06/13 04:55:32;;;;;;;2.30;2.20;;;;;;;;;;5062773;28;20563;-60
2023/06/13 04:57:59;;;;;;;2.60;2.47;;;;;;;;;;5065121;28;20206;-60
2023/06/13 05:00:26;;;;;;;3.70;2.30;;;;;;;;;;5065536;28;20220;-60
2023/06/13 05:02:55;;;;;;;2.28;2.10;;;;;;;;;;5063710;28;20235;-60
2023/06/13 05:05:22;;;;;;;2.08;1.98;;;;;;;;;;5051034;28;20223;-60
2023/06/13 05:07:55;;;;;;;2.58;2.40;;;;;;;;;;5047142;28;20199;-60
2023/06/13 05:10:24;;;;;;;2.63;2.42;;;;;;;;;;5048203;28;20214;-60
2023/06/13 05:12:51;;;;;;;2.10;2.03;;;;;;;;;;5048440;28;20748;-61
2023/06/13 05:15:19;;;;;;;2.47;2.38;;;;;;;;;;5048369;28;20207;-60
2023/06/13 05:17:48;;;;;;;2.38;2.28;;;;;;;;;;5048487;28;20296;-60
2023/06/13 05:20:15;;;;;;;2.38;2.28;;;;;;;;;;5049966;28;20215;-59
2023/06/13 05:22:42;;;;;;;2.38;2.00;;;;;;;;;;5067230;28;20214;-62
2023/06/13 05:25:11;;;;;;;2.55;2.33;;;;;;;;;;5060499;28;20237;-59
2023/06/13 05:27:40;;;;;;;2.58;2.45;;;;;;;;;;5045798;28;20203;-60
2023/06/13 05:30:09;;;;;;;5.95;2.17;;;;;;;;;;5045862;28;20214;-62
2023/06/13 05:32:36;;;;;;;2.50;2.30;;;;;;;;;;5054900;28;20558;-59
2023/06/13 05:35:03;;;;;;;2.67;2.47;;;;;;;;;;5060983;28;20595;-59
2023/06/13 05:37:30;;;;;;;2.15;2.05;;;;;;;;;;5058559;28;20646;-60
2023/06/13 05:39:57;;;;;;;3.30;2.58;;;;;;;;;;5046413;28;20754;-60
2023/06/13 05:42:24;;;;;;;2.50;2.30;;;;;;;;;;5047493;28;20219;-60
2023/06/13 05:44:53;;;;;;;2.35;2.25;;;;;;;;;;5045174;28;20227;-60
2023/06/13 05:47:20;;;;;;;2.28;2.17;;;;;;;;;;5062730;28;20253;-59
2023/06/13 05:49:47;;;;;;;2.50;2.40;;;;;;;;;;5065281;28;20202;-60
2023/06/13 05:52:14;;;;;;;3.33;2.22;;;;;;;;;;5054290;28;20694;-60
2023/06/13 05:54:43;;;;;;;2.10;2.00;;;;;;;;;;5049400;28;20338;-60
2023/06/13 05:57:11;;;;;;;1.95;1.85;;;;;;;;;;5051189;28;20589;-60
2023/06/13 05:59:38;;;;;;;3.08;1.98;;;;;;;;;;5055828;28;20214;-59
2023/06/13 06:02:07;;;;;;;2.00;2.00;;;;;;;;;;5053483;28;20235;-60
2023/06/13 06:04:34;;;;;;;2.40;2.30;;;;;;;;;;5050898;28;20215;-60
2023/06/13 06:07:01;;;;;;;1.85;1.75;;;;;;;;;;5050785;28;20215;-60
2023/06/13 06:09:28;;;;;;;2.30;2.20;;;;;;;;;;5057203;28;20661;-60
2023/06/13 06:11:56;;;;;;;2.47;2.28;;;;;;;;;;5058922;28;20227;-61
2023/06/13 06:14:23;;;;;;;2.40;2.30;;;;;;;;;;5050801;28;20567;-60
2023/06/13 06:16:50;;;;;;;1.58;1.52;;;;;;;;;;5050757;28;20747;-60
2023/06/13 06:19:19;;;;;;;1.95;1.85;;;;;;;;;;5064521;28;20305;-60
2023/06/13 06:21:46;;;;;;;2.00;1.90;;;;;;;;;;5052138;28;20223;-60
2023/06/13 06:24:13;;;;;;;1.90;1.80;;;;;;;;;;5051618;28;20229;-59
2023/06/13 06:26:40;;;;;;;1.88;1.77;;;;;;;;;;5051786;28;20227;-60
2023/06/13 06:29:07;;;;;;;1.50;1.50;;;;;;;;;;5051144;28;20310;-60
2023/06/13 06:31:34;;;;;;;1.80;1.80;;;;;;;;;;5050870;28;20211;-59
2023/06/13 06:34:01;;;;;;;2.30;2.20;;;;;;;;;;5051690;28;20684;-59
2023/06/13 06:36:29;;;;;;;1.73;1.73;;;;;;;;;;5050933;28;20223;-59
2023/06/13 06:38:56;;;;;;;1.88;1.77;;;;;;;;;;5050774;28;20211;-59
2023/06/13 06:41:23;;;;;;;2.05;1.95;;;;;;;;;;5048544;28;20204;-60
2023/06/13 06:43:50;;;;;;;2.00;1.90;;;;;;;;;;5052872;28;20199;-59
2023/06/13 06:46:17;;;;;;;2.00;1.90;;;;;;;;;;5052445;28;20693;-60
2023/06/13 06:48:45;;;;;;;2.20;2.10;;;;;;;;;;5059417;28;20215;-60
2023/06/13 06:51:12;;;;;;;2.25;2.15;;;;;;;;;;5069697;28;20214;-60
2023/06/13 06:53:42;;;;;;;2.28;2.17;;;;;;;;;;5070067;28;20207;-60
2023/06/13 06:56:10;;;;;;;3.10;2.05;;;;;;;;;;5069628;28;20611;-61
2023/06/13 06:58:37;;;;;;;2.20;2.10;;;;;;;;;;5069118;28;20218;-60
2023/06/13 07:01:04;;;;;;;2.38;2.20;;;;;;;;;;5063552;28;20782;-61
2023/06/13 07:03:31;;;;;;;2.25;2.17;;;;;;;;;;5069522;28;20246;-58
2023/06/13 07:05:58;;;;;;;2.25;2.15;;;;;;;;;;5067464;28;20687;-59
2023/06/13 07:08:25;;;;;;;1.75;1.65;;;;;;;;;;5069504;28;20211;-59
2023/06/13 07:10:53;;;;;;;1.80;1.70;;;;;;;;;;5069456;28;20207;-59
2023/06/13 07:13:20;;;;;;;2.08;2.00;;;;;;;;;;5069245;28;20214;-59
2023/06/13 07:15:47;;;;;;;2.50;2.30;;;;;;;;;;5069449;28;20199;-59
2023/06/13 07:18:14;;;;;;;1.95;1.85;;;;;;;;;;5067849;28;20207;-59
2023/06/13 07:20:41;;;;;;;2.08;2.08;;;;;;;;;;5069177;28;20245;-59
2023/06/13 07:23:10;;;;;;;2.35;2.25;;;;;;;;;;5061912;28;20208;-60
2023/06/13 07:25:37;;;;;;;2.25;2.15;;;;;;;;;;5049536;28;20223;-58
2023/06/13 07:28:05;;;;;;;1.77;1.65;;;;;;;;;;5048705;28;20207;-59
2023/06/13 07:30:33;;;;;;;1.95;1.73;;;;;;;;;;5045455;28;20218;-59
2023/06/13 07:33:00;;;;;;;1.73;1.65;;;;;;;;;;5049267;28;20219;-60
2023/06/13 07:35:27;;;;;;;1.88;1.88;;;;;;;;;;5049074;28;20275;-60
2023/06/13 07:37:54;;;;;;;2.20;2.10;;;;;;;;;;5049945;28;20607;-59
2023/06/13 07:40:23;;;;;;;2.05;2.05;;;;;;;;;;5049060;28;20213;-58
2023/06/13 07:42:50;;;;;;;1.60;1.60;;;;;;;;;;5052956;28;20213;-58
2023/06/13 07:45:19;;;;;;;2.38;1.85;;;;;;;;;;5069408;28;20653;-59
2023/06/13 07:47:46;;;;;;;1.45;1.40;;;;;;;;;;5069314;28;20218;-59
2023/06/13 07:50:13;;;;;;;1.90;1.80;;;;;;;;;;5069732;28;20211;-58
2023/06/13 07:52:41;;;;;;;4.38;2.20;;;;;;;;;;5067666;28;20207;-58
2023/06/13 07:55:08;;;;;;;1.58;1.58;;;;;;;;;;5067266;28;20290;-58
2023/06/13 07:57:35;;;;;;;1.98;1.88;;;;;;;;;;5048892;28;20212;-58
2023/06/13 08:00:04;;;;;;;1.98;1.88;;;;;;;;;;5049254;28;20242;-59
2023/06/13 08:02:34;;;;;;;2.30;2.20;;;;;;;;;;5049040;28;20274;-59
2023/06/13 08:05:02;;;;;;;3.00;1.73;;;;;;;;;;5048707;28;20212;-59
2023/06/13 08:07:30;;;;;;;1.60;1.60;;;;;;;;;;5045903;28;20231;-60
2023/06/13 08:09:57;;;;;;;1.77;1.67;;;;;;;;;;5048764;28;20258;-57
2023/06/13 08:12:24;;;;;;;1.90;1.73;;;;;;;;;;5048774;28;20237;-60
2023/06/13 08:14:51;;;;;;;1.73;1.60;;;;;;;;;;5048803;28;20224;-60
2023/06/13 08:17:18;;;;;;;1.50;1.50;;;;;;;;;;5048739;28;20216;-60
2023/06/13 08:19:48;;;;;;;1.40;1.40;;;;;;;;;;5054647;28;20276;-61
2023/06/13 08:22:15;;;;;;;1.42;1.42;;;;;;;;;;5050421;28;20297;-60
2023/06/13 08:24:42;;;;;;;1.67;1.67;;;;;;;;;;5057852;28;20199;-60
2023/06/13 08:27:10;;;;;;;3.90;1.92;;;;;;;;;;5047232;28;20220;-61
2023/06/13 08:29:37;;;;;;;1.88;1.88;;;;;;;;;;5057342;28;20280;-61
2023/06/13 08:32:04;;;;;;;1.42;1.42;;;;;;;;;;5059169;28;20215;-61
2023/06/13 08:34:32;;;;;;;2.42;2.33;;;;;;;;;;5063718;28;20211;-60
2023/06/13 08:37:00;;;;;;;1.67;1.67;;;;;;;;;;5066412;28;20252;-60
2023/06/13 08:39:28;;;;;;;3.35;1.88;;;;;;;;;;5056638;28;20621;-60
2023/06/13 08:41:55;;;;;;;1.90;1.90;;;;;;;;;;5066945;28;20855;-61
2023/06/13 08:44:22;;;;;;;2.08;1.98;;;;;;;;;;5068655;28;20214;-60
2023/06/13 08:46:49;;;;;;;1.73;1.73;;;;;;;;;;5066396;28;20964;-59
2023/06/13 08:49:16;;;;;;;1.67;1.67;;;;;;;;;;5066503;28;20214;-59
2023/06/13 08:51:48;;;;;;;2.13;2.03;;;;;;;;;;5068164;28;20210;-59
2023/06/13 08:54:16;;;;;;;2.17;2.08;;;;;;;;;;5068017;28;20685;-60
2023/06/13 08:56:44;;;;;;;2.28;2.20;;;;;;;;;;5065879;28;20207;-58
2023/06/13 08:59:15;;;;;;;2.10;2.00;;;;;;;;;;5063764;28;20219;-60
2023/06/13 09:01:44;;;;;;;1.75;1.73;;;;;;;;;;5065565;28;20215;-61
2023/06/13 09:04:12;;;;;;;2.30;2.13;;;;;;;;;;5064502;28;20298;-59
2023/06/13 09:06:39;;;;;;;1.65;1.55;;;;;;;;;;5067212;28;20241;-60
2023/06/13 09:09:07;;;;;;;2.00;1.95;;;;;;;;;;5067253;28;20222;-60
2023/06/13 09:11:36;;;;;;;1.90;1.80;;;;;;;;;;5066464;28;20215;-59
2023/06/13 09:14:03;;;;;;;2.42;2.33;;;;;;;;;;5045920;28;20204;-60
2023/06/13 09:16:31;;;;;;;1.85;1.75;;;;;;;;;;5045695;28;20589;-60
2023/06/13 09:18:59;;;;;;;4.07;2.08;;;;;;;;;;5047463;28;20785;-60
2023/06/13 09:21:26;;;;;;;1.90;1.80;;;;;;;;;;5047290;28;20239;-60
2023/06/13 09:23:54;;;;;;;1.67;1.67;;;;;;;;;;5046502;28;20281;-60
2023/06/13 09:26:22;;;;;;;4.47;1.98;;;;;;;;;;5046446;28;20224;-59
2023/06/13 09:28:50;;;;;;;1.70;1.60;;;;;;;;;;5047224;28;20216;-59
2023/06/13 09:31:17;;;;;;;1.92;1.83;;;;;;;;;;5046826;28;20231;-60
2023/06/13 09:33:45;;;;;;;2.53;1.77;;;;;;;;;;5047034;28;20265;-60
2023/06/13 09:36:12;;;;;;;1.70;1.60;;;;;;;;;;5047324;28;20341;-60
2023/06/13 09:38:41;;;;;;;2.17;1.80;;;;;;;;;;5048132;28;20679;-61
2023/06/13 09:41:08;;;;;;;1.73;1.73;;;;;;;;;;5064472;28;20528;-63
2023/06/13 09:43:35;;;;;;;1.92;1.83;;;;;;;;;;5050931;28;20218;-62
2023/06/13 09:46:04;;;;;;;1.98;1.83;;;;;;;;;;5067639;28;20219;-63
2023/06/13 09:48:31;;;;;;;2.00;1.90;;;;;;;;;;5059632;28;20286;-60
2023/06/13 09:50:58;;;;;;;2.05;1.95;;;;;;;;;;5047337;28;20242;-59
2023/06/13 09:53:26;;;;;;;2.20;2.10;;;;;;;;;;5047210;28;20204;-61
2023/06/13 09:55:53;;;;;;;1.25;1.25;;;;;;;;;;5064842;28;20207;-59
2023/06/13 09:58:20;;;;;;;1.60;1.60;;;;;;;;;;5056274;28;20287;-61
2023/06/13 10:00:48;;;;;;;3.20;1.75;;;;;;;;;;5055481;28;20713;-60
2023/06/13 10:03:18;;;;;;;2.00;1.90;;;;;;;;;;5066076;28;20234;-60
2023/06/13 10:05:45;;;;;;;2.30;2.20;;;;;;;;;;5067350;28;20207;-59
2023/06/13 10:08:13;;;;;;;1.60;1.50;;;;;;;;;;5066899;28;20324;-60
2023/06/13 10:10:40;;;;;;;1.60;1.50;;;;;;;;;;5067116;28;20218;-61
2023/06/13 10:13:08;;;;;;;3.75;2.10;;;;;;;;;;5067395;28;20206;-60
2023/06/13 10:15:37;;;;;;;2.30;2.15;;;;;;;;;;5066594;28;20211;-59
2023/06/13 10:18:06;;;;;;;1.90;1.80;;;;;;;;;;5047046;28;20199;-60
2023/06/13 10:23:41;;;;;;;1.80;1.80;;;;;;;;;;5034711;28;20208;-60
2023/06/13 10:26:09;;;;;;;2.30;2.10;;;;;;;;;;5044017;28;20204;-60
2023/06/13 10:28:42;;;;;;;1.40;1.40;;;;;;;;;;5044699;28;20260;-59
2023/06/13 10:31:15;;;;;;;1.67;1.67;;;;;;;;;;5059816;28;20207;-60
2023/06/13 10:34:01;;;;;;;3.53;2.05;;;;;;;;;;5066904;28;20319;-60
2023/06/13 10:36:41;;;;;;;1.83;1.73;;;;;;;;;;5067506;28;20321;-61
2023/06/13 10:39:30;;;;;;;1.83;1.70;;;;;;;;;;5059605;28;20218;-60
2023/06/13 10:42:08;;;;;;;2.00;1.90;;;;;;;;;;5057887;28;20204;-61
2023/06/13 10:44:41;;;;;;;1.75;1.75;;;;;;;;;;5068884;28;20213;-61
2023/06/13 10:47:08;;;;;;;1.73;1.67;;;;;;;;;;5069683;28;20239;-61
2023/06/13 10:49:37;;;;;;;2.13;2.03;;;;;;;;;;5069126;28;20207;-61
2023/06/13 10:52:10;;;;;;;1.95;1.95;;;;;;;;;;5061765;28;20337;-59
2023/06/13 10:54:38;;;;;;;3.28;1.95;;;;;;;;;;5056296;28;20227;-60
2023/06/13 10:57:06;;;;;;;8.18;1.98;;;;;;;;;;5058612;28;20203;-59
2023/06/13 10:59:36;;;;;;;1.85;1.80;;;;;;;;;;5054122;28;20211;-60
2023/06/13 11:02:03;;;;;;;2.10;2.00;;;;;;;;;;5054421;28;20235;-60
2023/06/13 11:04:31;;;;;;;1.80;1.70;;;;;;;;;;5049485;28;20208;-58
2023/06/13 11:07:13;;;;;;;2.20;2.10;;;;;;;;;;5068428;28;20249;-57
2023/06/13 11:09:43;;;;;;;1.83;1.23;;;;;;;;;;5062693;28;20254;-59
2023/06/13 11:12:10;;;;;;;1.75;1.67;;;;;;;;;;5066260;28;20218;-59
2023/06/13 11:14:38;;;;;;;3.80;2.05;;;;;;;;;;5064481;28;20234;-58
2023/06/13 11:17:06;;;;;;;1.80;1.70;;;;;;;;;;5055733;28;20208;-60
2023/06/13 11:19:35;;;;;;;1.83;1.83;;;;;;;;;;5049029;28;20207;-60
2023/06/13 11:22:12;;;;;;;2.08;1.90;;;;;;;;;;5049099;28;20242;-59
2023/06/13 11:24:40;;;;;;;1.92;1.88;;;;;;;;;;5055483;28;20230;-59
2023/06/13 11:27:10;;;;;;;1.85;1.75;;;;;;;;;;5060320;28;20230;-58
2023/06/13 11:29:38;;;;;;;1.77;1.77;;;;;;;;;;5049296;28;20226;-58
2023/06/13 11:32:08;;;;;;;2.10;2.00;;;;;;;;;;5059414;28;20230;-67
2023/06/13 11:34:37;;;;;;;2.45;1.83;;;;;;;;;;5049821;28;20682;-59
2023/06/13 11:37:06;;;;;;;2.08;2.03;;;;;;;;;;5050747;28;20200;-58
2023/06/13 11:39:37;;;;;;;2.00;1.90;;;;;;;;;;5061532;28;20620;-59
2023/06/13 11:42:04;;;;;;;1.45;1.45;;;;;;;;;;5067237;28;20673;-59
2023/06/13 11:44:33;;;;;;;2.80;2.13;;;;;;;;;;5048836;28;20254;-59
2023/06/13 11:47:00;;;;;;;1.83;1.83;;;;;;;;;;5047695;28;20644;-60
2023/06/13 11:49:27;;;;;;;4.70;2.50;;;;;;;;;;5055965;28;20415;-59
2023/06/13 11:51:54;;;;;;;2.67;1.90;;;;;;;;;;5055956;28;20773;-59
2023/06/13 11:54:29;;;;;;;1.80;1.80;;;;;;;;;;5059172;28;20221;-59
2023/06/13 11:56:56;;;;;;;2.03;2.03;;;;;;;;;;5058443;28;20294;-59
2023/06/13 11:59:24;;;;;;;1.85;1.85;;;;;;;;;;5055128;28;20233;-59
2023/06/13 12:01:53;;;;;;;1.65;1.65;;;;;;;;;;5058223;28;20230;-59
2023/06/13 12:04:20;;;;;;;2.13;2.10;;;;;;;;;;5056478;28;20239;-60
2023/06/13 12:06:47;;;;;;;1.80;1.77;;;;;;;;;;5056405;28;20928;-60
2023/06/13 12:09:15;;;;;;;1.80;1.80;;;;;;;;;;5057582;28;20952;-59
2023/06/13 12:11:42;;;;;;;1.20;1.20;;;;;;;;;;5059984;28;20256;-60
2023/06/13 12:14:09;;;;;;;4.55;1.75;;;;;;;;;;5058448;28;20234;-61
2023/06/13 12:16:37;;;;;;;2.08;1.98;;;;;;;;;;5055920;28;20207;-60
2023/06/13 12:19:06;;;;;;;1.70;1.70;;;;;;;;;;5056241;28;20282;-59
2023/06/13 12:21:33;;;;;;;2.00;1.90;;;;;;;;;;5055824;28;20281;-60
2023/06/13 12:24:01;;;;;;;1.63;1.58;;;;;;;;;;5058598;28;20207;-59
2023/06/13 12:26:31;;;;;;;1.42;1.42;;;;;;;;;;5053869;28;20207;-59
2023/06/13 12:28:59;;;;;;;4.00;1.73;;;;;;;;;;5057593;28;20205;-59
2023/06/13 12:31:35;;;;;;;6.28;1.95;;;;;;;;;;5057021;28;20226;-60
2023/06/13 12:34:13;;;;;;;1.50;1.50;;;;;;;;;;5059553;28;20305;-59
2023/06/13 12:36:42;;;;;;;2.05;1.95;;;;;;;;;;5048275;28;20230;-60
2023/06/13 12:39:11;;;;;;;2.38;2.17;;;;;;;;;;5056297;28;20208;-60
2023/06/13 12:41:41;;;;;;;2.35;2.03;;;;;;;;;;5058218;28;20205;-60
2023/06/13 12:44:09;;;;;;;1.70;1.70;;;;;;;;;;5057054;28;20245;-61
2023/06/13 12:46:38;;;;;;;2.17;1.80;;;;;;;;;;5056515;28;20203;-60
2023/06/13 12:49:10;;;;;;;2.00;1.90;;;;;;;;;;5058049;28;20740;-59
2023/06/13 12:51:42;;;;;;;1.92;1.83;;;;;;;;;;5052235;28;20212;-58
2023/06/13 12:54:11;;;;;;;1.77;1.77;;;;;;;;;;5053708;28;20253;-61
2023/06/13 12:56:38;;;;;;;1.88;1.77;;;;;;;;;;5058102;28;20881;-59
2023/06/13 12:59:07;;;;;;;1.95;1.85;;;;;;;;;;5053764;28;20207;-59
2023/06/13 13:01:35;;;;;;;3.00;2.00;;;;;;;;;;5056990;28;20215;-62
2023/06/13 13:04:02;;;;;;;2.30;2.20;;;;;;;;;;5054459;28;20208;-60
2023/06/13 13:06:31;;;;;;;2.92;2.20;;;;;;;;;;5056732;28;20218;-59
2023/06/13 13:08:58;;;;;;;1.65;1.65;;;;;;;;;;5051717;28;20223;-57
2023/06/13 13:11:26;;;;;;;2.03;1.98;;;;;;;;;;5055258;28;20207;-60
2023/06/13 13:13:53;;;;;;;1.67;1.58;;;;;;;;;;5057704;28;20210;-59
2023/06/13 13:16:21;;;;;;;1.80;1.70;;;;;;;;;;5057391;28;20207;-59
2023/06/13 13:18:49;;;;;;;2.05;1.95;;;;;;;;;;5056797;28;20208;-60
2023/06/13 13:21:16;;;;;;;1.63;1.63;;;;;;;;;;5049435;28;20227;-59
2023/06/13 13:23:44;;;;;;;2.60;1.98;;;;;;;;;;5050829;28;20239;-60
2023/06/13 13:26:11;;;;;;;1.90;1.90;;;;;;;;;;5053256;28;20207;-60
2023/06/13 13:28:38;;;;;;;1.85;1.80;;;;;;;;;;5060684;28;20229;-59
2023/06/13 13:31:05;;;;;;;1.98;1.98;;;;;;;;;;5061907;28;20681;-59
2023/06/13 13:33:32;;;;;;;2.50;2.38;;;;;;;;;;5049794;28;20911;-59
2023/06/13 13:35:59;;;;;;;2.25;2.15;;;;;;;;;;5055372;28;20218;-59
2023/06/13 13:38:26;;;;;;;1.92;1.83;;;;;;;;;;5061039;28;20196;-60
2023/06/13 13:40:55;;;;;;;1.88;1.83;;;;;;;;;;5056973;28;20286;-59
2023/06/13 13:43:22;;;;;;;3.80;2.00;;;;;;;;;;5047427;28;20211;-60
2023/06/13 13:45:49;;;;;;;2.35;2.25;;;;;;;;;;5061867;28;20203;-60
2023/06/13 13:48:16;;;;;;;3.08;1.65;;;;;;;;;;5059171;28;20228;-59
2023/06/13 13:50:44;;;;;;;2.03;2.03;;;;;;;;;;5061170;28;20203;-59
2023/06/13 13:53:14;;;;;;;1.80;1.70;;;;;;;;;;5056956;28;20670;-60
2023/06/13 13:55:41;;;;;;;2.10;2.00;;;;;;;;;;5049691;28;20307;-59
2023/06/13 13:58:10;;;;;;;2.10;2.00;;;;;;;;;;5047263;28;20207;-60
2023/06/13 14:00:37;;;;;;;2.60;2.20;;;;;;;;;;5052225;28;20228;-60
2023/06/13 14:03:04;;;;;;;1.90;1.60;;;;;;;;;;5058969;28;20234;-59
2023/06/13 14:05:31;;;;;;;2.13;2.03;;;;;;;;;;5065580;28;20211;-59
2023/06/13 14:07:59;;;;;;;2.05;2.00;;;;;;;;;;5047377;28;20583;-59
2023/06/13 14:10:26;;;;;;;2.33;2.10;;;;;;;;;;5050021;28;20207;-60
2023/06/13 14:12:53;;;;;;;2.35;2.00;;;;;;;;;;5057624;28;20213;-59
2023/06/13 14:15:21;;;;;;;5.90;2.17;;;;;;;;;;5058226;28;20302;-59
2023/06/13 14:17:48;;;;;;;2.25;2.10;;;;;;;;;;5063455;28;20221;-59
2023/06/13 14:20:16;;;;;;;1.92;1.92;;;;;;;;;;5053775;28;20238;-59
2023/06/13 14:22:43;;;;;;;2.20;2.10;;;;;;;;;;5067163;28;20870;-60
2023/06/13 14:25:11;;;;;;;2.22;2.05;;;;;;;;;;5050103;28;20372;-59
2023/06/13 14:27:38;;;;;;;2.33;1.98;;;;;;;;;;5062606;28;20219;-59
2023/06/13 14:30:06;;;;;;;2.03;1.92;;;;;;;;;;5063853;28;20632;-58
2023/06/13 14:32:34;;;;;;;2.40;2.30;;;;;;;;;;5064995;28;20203;-59
2023/06/13 14:35:02;;;;;;;2.10;2.00;;;;;;;;;;5053007;28;20741;-60
2023/06/13 14:37:30;;;;;;;1.85;1.85;;;;;;;;;;5051674;28;21089;-59
2023/06/13 14:39:57;;;;;;;2.25;2.15;;;;;;;;;;5062677;28;20214;-59
2023/06/13 14:42:24;;;;;;;2.05;1.85;;;;;;;;;;5068535;28;20214;-59
2023/06/13 14:44:51;;;;;;;2.13;2.03;;;;;;;;;;5060593;28;20211;-59
2023/06/13 14:47:19;;;;;;;1.70;1.70;;;;;;;;;;5055538;28;20647;-59
2023/06/13 14:49:47;;;;;;;2.40;2.30;;;;;;;;;;5049210;28;20203;-59
2023/06/13 14:52:14;;;;;;;2.20;2.20;;;;;;;;;;5058390;28;20199;-59